Time;durP1;ratioP1;P1;durP2;ratioP2;P2;SDS_P1;SDS_P2;PMS_P1;PMS_P2;Temp;Humidity;BMP_temperature;BMP_pressure;BME280_temperature;BME280_humidity;BME280_pressure;Samples;Min_cycle;Max_cycle;Signal;HPM_P1;HPM_P2
2023/12/05 06:00:28;;;;;;;4.63;4.00;;;;;;;;;;1744236;28;20424;-77
2023/12/05 06:01:19;;;;;;;4.13;3.60;;;;;;;;;;1742153;28;20678;-78
2023/12/05 06:02:11;;;;;;;4.55;3.65;;;;;;;;;;1741620;28;20199;-78
2023/12/05 06:03:04;;;;;;;4.47;3.60;;;;;;;;;;1741476;28;20210;-78
2023/12/05 06:03:55;;;;;;;3.67;3.38;;;;;;;;;;1741519;28;20264;-77
2023/12/05 06:04:46;;;;;;;2.90;2.70;;;;;;;;;;1741572;28;20689;-78
2023/12/05 06:05:38;;;;;;;3.63;3.10;;;;;;;;;;1741458;28;20199;-78
2023/12/05 06:06:29;;;;;;;3.53;3.22;;;;;;;;;;1742438;28;20199;-78
2023/12/05 06:07:23;;;;;;;3.50;3.20;;;;;;;;;;1747361;28;20203;-76
2023/12/05 06:08:14;;;;;;;4.30;3.33;;;;;;;;;;1742907;28;20223;-77
2023/12/05 06:09:05;;;;;;;3.25;2.95;;;;;;;;;;1745533;28;20264;-78
2023/12/05 06:09:57;;;;;;;3.25;2.90;;;;;;;;;;1744970;28;20203;-76
2023/12/05 06:10:48;;;;;;;3.63;3.10;;;;;;;;;;1741301;28;20236;-77
2023/12/05 06:11:40;;;;;;;4.07;3.40;;;;;;;;;;1741401;28;20234;-78
2023/12/05 06:12:32;;;;;;;3.33;3.00;;;;;;;;;;1741903;28;20609;-77
2023/12/05 06:13:24;;;;;;;3.30;3.00;;;;;;;;;;1742507;28;20309;-78
2023/12/05 06:14:15;;;;;;;3.30;3.00;;;;;;;;;;1741287;28;20221;-77
2023/12/05 06:15:06;;;;;;;3.15;2.85;;;;;;;;;;1741638;28;20199;-78
2023/12/05 06:16:01;;;;;;;3.75;3.25;;;;;;;;;;1741459;28;20202;-78
2023/12/05 06:16:52;;;;;;;4.32;3.15;;;;;;;;;;1734372;28;20431;-78
2023/12/05 06:17:44;;;;;;;3.50;2.75;;;;;;;;;;1739294;28;20233;-77
2023/12/05 06:18:35;;;;;;;3.42;3.13;;;;;;;;;;1741629;28;20203;-77
2023/12/05 06:19:26;;;;;;;3.45;2.95;;;;;;;;;;1741473;28;20289;-77
2023/12/05 06:20:18;;;;;;;4.30;2.95;;;;;;;;;;1741548;28;20265;-77
2023/12/05 06:21:09;;;;;;;3.38;2.90;;;;;;;;;;1741516;28;20199;-77
2023/12/05 06:22:00;;;;;;;3.60;3.30;;;;;;;;;;1741576;28;20202;-77
2023/12/05 06:22:52;;;;;;;3.60;3.30;;;;;;;;;;1741318;28;20202;-77
2023/12/05 06:23:43;;;;;;;3.95;3.05;;;;;;;;;;1734618;28;20222;-77
2023/12/05 06:24:35;;;;;;;3.55;2.70;;;;;;;;;;1734573;28;20203;-78
2023/12/05 06:25:27;;;;;;;3.83;3.10;;;;;;;;;;1740010;28;20705;-78
2023/12/05 06:26:19;;;;;;;3.38;3.08;;;;;;;;;;1740827;28;20199;-76
2023/12/05 06:27:11;;;;;;;5.75;3.05;;;;;;;;;;1740025;28;20208;-77
2023/12/05 06:28:03;;;;;;;3.92;2.92;;;;;;;;;;1741596;28;20230;-77
2023/12/05 06:28:54;;;;;;;4.10;3.13;;;;;;;;;;1742590;28;20674;-78
2023/12/05 06:29:45;;;;;;;4.18;3.25;;;;;;;;;;1742669;28;20257;-77
2023/12/05 06:30:37;;;;;;;3.40;3.10;;;;;;;;;;1740102;28;20214;-78
2023/12/05 06:31:30;;;;;;;3.10;2.85;;;;;;;;;;1742922;28;20195;-79
2023/12/05 06:32:21;;;;;;;3.50;3.20;;;;;;;;;;1738989;28;20196;-79
2023/12/05 06:33:13;;;;;;;3.17;2.88;;;;;;;;;;1741862;28;20234;-78
2023/12/05 06:34:04;;;;;;;4.60;3.10;;;;;;;;;;1739321;28;20195;-79
2023/12/05 06:34:55;;;;;;;3.03;2.70;;;;;;;;;;1742500;28;20222;-78
2023/12/05 06:35:47;;;;;;;3.40;3.10;;;;;;;;;;1743619;28;20364;-79
2023/12/05 06:36:38;;;;;;;3.03;2.83;;;;;;;;;;1742738;28;20215;-77
2023/12/05 06:37:29;;;;;;;3.17;2.90;;;;;;;;;;1742497;28;20625;-76
2023/12/05 06:38:22;;;;;;;3.20;2.90;;;;;;;;;;1742689;28;20198;-77
2023/12/05 06:39:13;;;;;;;3.25;2.80;;;;;;;;;;1742519;28;20595;-76
2023/12/05 06:40:05;;;;;;;3.28;2.92;;;;;;;;;;1742105;28;20195;-76
2023/12/05 06:40:57;;;;;;;3.35;2.85;;;;;;;;;;1735251;28;20196;-76
2023/12/05 06:41:49;;;;;;;6.30;3.25;;;;;;;;;;1735194;28;20207;-75
2023/12/05 06:42:41;;;;;;;4.25;3.40;;;;;;;;;;1741336;28;20261;-76
2023/12/05 06:43:32;;;;;;;5.18;3.00;;;;;;;;;;1742278;28;20199;-77
2023/12/05 06:44:23;;;;;;;3.92;3.28;;;;;;;;;;1743344;28;20205;-77
2023/12/05 06:45:15;;;;;;;4.75;3.17;;;;;;;;;;1742405;28;20282;-77
2023/12/05 06:46:07;;;;;;;3.55;3.00;;;;;;;;;;1741986;28;20584;-76
2023/12/05 06:47:00;;;;;;;3.53;3.22;;;;;;;;;;1742059;28;20195;-77
2023/12/05 06:47:52;;;;;;;3.13;2.72;;;;;;;;;;1742116;28;20310;-76
2023/12/05 06:48:43;;;;;;;5.22;3.17;;;;;;;;;;1742086;28;20199;-77
2023/12/05 06:49:34;;;;;;;3.40;3.20;;;;;;;;;;1742046;28;20205;-76
2023/12/05 06:50:26;;;;;;;3.75;3.42;;;;;;;;;;1739273;28;20277;-77
2023/12/05 06:51:18;;;;;;;3.15;2.88;;;;;;;;;;1739324;28;20200;-76
2023/12/05 06:52:11;;;;;;;3.17;2.97;;;;;;;;;;1741599;28;20202;-76
2023/12/05 06:53:03;;;;;;;3.78;3.33;;;;;;;;;;1742269;28;20559;-77
2023/12/05 06:53:54;;;;;;;4.18;3.10;;;;;;;;;;1741989;28;20234;-77
2023/12/05 06:54:45;;;;;;;3.33;3.03;;;;;;;;;;1742391;28;20293;-76
2023/12/05 06:55:37;;;;;;;3.58;2.80;;;;;;;;;;1742166;28;20245;-77
2023/12/05 06:56:28;;;;;;;4.85;3.22;;;;;;;;;;1741846;28;20214;-77
2023/12/05 06:57:20;;;;;;;4.03;3.53;;;;;;;;;;1742257;28;20659;-77
2023/12/05 06:58:12;;;;;;;4.53;4.13;;;;;;;;;;1742157;28;20215;-77
2023/12/05 06:59:03;;;;;;;3.78;3.35;;;;;;;;;;1742280;28;20203;-77
2023/12/05 06:59:56;;;;;;;3.55;3.22;;;;;;;;;;1735282;28;20210;-77
2023/12/05 07:00:47;;;;;;;4.05;3.15;;;;;;;;;;1735419;28;20211;-77
2023/12/05 07:01:38;;;;;;;3.95;3.33;;;;;;;;;;1735269;28;20200;-77
2023/12/05 07:02:32;;;;;;;3.42;3.13;;;;;;;;;;1735357;28;20306;-76
2023/12/05 07:03:23;;;;;;;7.07;4.25;;;;;;;;;;1739559;28;20219;-76
2023/12/05 07:04:15;;;;;;;3.50;3.20;;;;;;;;;;1742274;28;20728;-77
2023/12/05 07:05:08;;;;;;;5.28;3.10;;;;;;;;;;1742188;28;20585;-77
2023/12/05 07:06:00;;;;;;;3.40;3.10;;;;;;;;;;1742134;28;20230;-77
2023/12/05 07:06:51;;;;;;;4.50;3.08;;;;;;;;;;1741839;28;20572;-77
2023/12/05 07:07:42;;;;;;;5.15;3.00;;;;;;;;;;1742163;28;20207;-77
2023/12/05 07:08:34;;;;;;;3.20;2.90;;;;;;;;;;1742087;28;20286;-76
2023/12/05 07:09:26;;;;;;;3.15;2.85;;;;;;;;;;1745684;28;20209;-77
2023/12/05 07:10:17;;;;;;;3.95;3.22;;;;;;;;;;1749244;28;20690;-77
2023/12/05 07:11:09;;;;;;;3.65;2.88;;;;;;;;;;1743631;28;20207;-77
2023/12/05 07:12:00;;;;;;;3.97;2.97;;;;;;;;;;1742096;28;20218;-76
2023/12/05 07:12:51;;;;;;;3.25;2.95;;;;;;;;;;1742104;28;20207;-77
2023/12/05 07:13:45;;;;;;;3.05;2.70;;;;;;;;;;1741980;28;20227;-77
2023/12/05 07:14:36;;;;;;;2.88;2.67;;;;;;;;;;1742044;28;20206;-76
2023/12/05 07:15:28;;;;;;;3.35;2.70;;;;;;;;;;1742237;28;20230;-77
2023/12/05 07:16:19;;;;;;;4.78;2.90;;;;;;;;;;1741780;28;20218;-77
2023/12/05 07:17:11;;;;;;;4.28;2.60;;;;;;;;;;1742126;28;20203;-76
2023/12/05 07:18:03;;;;;;;3.30;2.13;;;;;;;;;;1741939;28;20227;-77
2023/12/05 07:18:55;;;;;;;5.78;2.60;;;;;;;;;;1742055;28;20206;-77
2023/12/05 07:19:47;;;;;;;2.90;2.60;;;;;;;;;;1742066;28;20207;-77
2023/12/05 07:20:39;;;;;;;5.00;2.60;;;;;;;;;;1742145;28;20928;-77
2023/12/05 07:21:30;;;;;;;4.05;3.00;;;;;;;;;;1742113;28;20581;-77
2023/12/05 07:22:23;;;;;;;2.97;2.30;;;;;;;;;;1742090;28;20203;-77
2023/12/05 07:23:14;;;;;;;3.08;2.60;;;;;;;;;;1742132;28;20203;-77
2023/12/05 07:24:06;;;;;;;3.97;2.20;;;;;;;;;;1742197;28;20195;-77
2023/12/05 07:24:57;;;;;;;2.55;2.35;;;;;;;;;;1742158;28;20206;-77
2023/12/05 07:25:49;;;;;;;3.55;2.30;;;;;;;;;;1742780;28;20241;-77
2023/12/05 07:26:41;;;;;;;3.72;3.03;;;;;;;;;;1741700;28;20242;-76
2023/12/05 07:27:32;;;;;;;2.97;2.30;;;;;;;;;;1741833;28;20207;-77
2023/12/05 07:28:23;;;;;;;5.82;2.90;;;;;;;;;;1741992;28;20223;-76
2023/12/05 07:29:15;;;;;;;2.90;2.05;;;;;;;;;;1741964;28;20290;-77
2023/12/05 07:30:07;;;;;;;3.35;2.30;;;;;;;;;;1742086;28;20579;-77
2023/12/05 07:30:59;;;;;;;2.70;2.28;;;;;;;;;;1742088;28;20202;-77
2023/12/05 07:31:51;;;;;;;3.45;2.35;;;;;;;;;;1741864;28;20199;-77
2023/12/05 07:32:42;;;;;;;4.07;2.17;;;;;;;;;;1742005;28;20550;-76
2023/12/05 07:33:34;;;;;;;3.65;2.55;;;;;;;;;;1741990;28;20207;-77
2023/12/05 07:34:26;;;;;;;2.65;2.00;;;;;;;;;;1738986;28;20196;-77
2023/12/05 07:35:17;;;;;;;3.30;2.40;;;;;;;;;;1738763;28;20202;-76
2023/12/05 07:36:09;;;;;;;3.97;2.28;;;;;;;;;;1741124;28;20191;-77
2023/12/05 07:37:01;;;;;;;3.55;2.22;;;;;;;;;;1739533;28;20191;-77
2023/12/05 07:37:52;;;;;;;3.45;2.22;;;;;;;;;;1741873;28;20616;-77
2023/12/05 07:38:44;;;;;;;3.55;2.30;;;;;;;;;;1742179;28;20230;-77
2023/12/05 07:39:36;;;;;;;2.85;2.25;;;;;;;;;;1741443;28;20218;-77
2023/12/05 07:40:27;;;;;;;2.45;2.17;;;;;;;;;;1741727;28;20203;-77
2023/12/05 07:41:19;;;;;;;2.53;2.30;;;;;;;;;;1742034;28;20199;-77
2023/12/05 07:42:10;;;;;;;4.75;2.40;;;;;;;;;;1743091;28;20203;-78
2023/12/05 07:43:02;;;;;;;5.40;2.58;;;;;;;;;;1741943;28;20203;-77
2023/12/05 07:43:53;;;;;;;3.75;2.60;;;;;;;;;;1741867;28;20210;-76
2023/12/05 07:44:45;;;;;;;2.63;2.42;;;;;;;;;;1739851;28;20203;-77
2023/12/05 07:45:37;;;;;;;6.13;2.38;;;;;;;;;;1741463;28;20286;-77
2023/12/05 07:46:28;;;;;;;2.88;2.00;;;;;;;;;;1739372;28;20195;-77
2023/12/05 07:47:20;;;;;;;5.00;2.15;;;;;;;;;;1741419;28;20287;-78
2023/12/05 07:48:11;;;;;;;3.75;1.80;;;;;;;;;;1738981;28;20593;-77
2023/12/05 07:49:04;;;;;;;2.72;2.00;;;;;;;;;;1739226;28;20241;-77
2023/12/05 07:49:56;;;;;;;2.17;1.90;;;;;;;;;;1738971;28;20652;-78
2023/12/05 07:50:47;;;;;;;2.70;2.00;;;;;;;;;;1741880;28;20667;-77
2023/12/05 07:51:38;;;;;;;3.45;2.00;;;;;;;;;;1742130;28;20261;-77
2023/12/05 07:52:30;;;;;;;2.83;1.83;;;;;;;;;;1742006;28;20294;-77
2023/12/05 07:53:21;;;;;;;3.30;2.10;;;;;;;;;;1741938;28;20203;-77
2023/12/05 07:54:12;;;;;;;4.70;2.25;;;;;;;;;;1741698;28;20567;-77
2023/12/05 07:55:04;;;;;;;3.97;1.95;;;;;;;;;;1741625;28;20214;-76
2023/12/05 07:55:55;;;;;;;3.92;2.10;;;;;;;;;;1739041;28;20200;-77
2023/12/05 07:56:47;;;;;;;2.85;1.60;;;;;;;;;;1740662;28;20230;-77
2023/12/05 07:57:38;;;;;;;5.03;2.20;;;;;;;;;;1738925;28;20203;-78
2023/12/05 07:58:29;;;;;;;2.30;1.90;;;;;;;;;;1742874;28;20187;-77
2023/12/05 07:59:21;;;;;;;2.55;2.00;;;;;;;;;;1741861;28;20573;-77
2023/12/05 08:00:16;;;;;;;4.15;1.95;;;;;;;;;;1741827;28;20594;-77
2023/12/05 08:01:08;;;;;;;4.32;2.40;;;;;;;;;;1741685;28;20210;-77
2023/12/05 08:01:59;;;;;;;2.88;2.00;;;;;;;;;;1741903;28;20203;-76
2023/12/05 08:02:51;;;;;;;3.33;1.88;;;;;;;;;;1748264;28;20186;-76
2023/12/05 08:03:42;;;;;;;2.97;1.88;;;;;;;;;;1744958;28;20207;-77
2023/12/05 08:04:35;;;;;;;3.08;2.10;;;;;;;;;;1741733;28;20634;-78
2023/12/05 08:05:27;;;;;;;2.47;2.00;;;;;;;;;;1741713;28;20206;-78
2023/12/05 08:06:19;;;;;;;4.13;1.98;;;;;;;;;;1741099;28;20211;-76
2023/12/05 08:07:10;;;;;;;2.53;2.30;;;;;;;;;;1741725;28;20207;-77
2023/12/05 08:08:02;;;;;;;3.05;2.50;;;;;;;;;;1741265;28;20219;-77
2023/12/05 08:08:53;;;;;;;3.10;2.20;;;;;;;;;;1741554;28;20214;-77
2023/12/05 08:09:44;;;;;;;2.67;2.10;;;;;;;;;;1741185;28;20202;-77
2023/12/05 08:10:36;;;;;;;3.55;2.28;;;;;;;;;;1741420;28;20202;-77
2023/12/05 08:11:27;;;;;;;3.88;2.95;;;;;;;;;;1741937;28;20210;-77
2023/12/05 08:12:18;;;;;;;3.10;2.08;;;;;;;;;;1734771;28;20199;-77
2023/12/05 08:13:10;;;;;;;5.78;2.05;;;;;;;;;;1735011;28;20704;-77
2023/12/05 08:14:02;;;;;;;2.38;1.80;;;;;;;;;;1740477;28;20614;-77
2023/12/05 08:14:53;;;;;;;3.08;1.90;;;;;;;;;;1743169;28;20680;-77
2023/12/05 08:15:45;;;;;;;3.65;2.30;;;;;;;;;;1744999;28;20211;-77
2023/12/05 08:16:38;;;;;;;3.08;2.10;;;;;;;;;;1741270;28;20210;-77
2023/12/05 08:17:29;;;;;;;4.50;2.55;;;;;;;;;;1741273;28;20283;-76
2023/12/05 08:18:21;;;;;;;5.45;2.55;;;;;;;;;;1740339;28;20290;-77
2023/12/05 08:19:12;;;;;;;2.40;1.75;;;;;;;;;;1741183;28;20577;-77
2023/12/05 08:20:06;;;;;;;4.35;1.95;;;;;;;;;;1741084;28;20280;-77
2023/12/05 08:20:58;;;;;;;2.20;1.80;;;;;;;;;;1740995;28;20199;-77
2023/12/05 08:21:49;;;;;;;2.67;2.05;;;;;;;;;;1740852;28;20207;-77
2023/12/05 08:22:41;;;;;;;4.35;2.20;;;;;;;;;;1741122;28;20202;-77
2023/12/05 08:23:32;;;;;;;2.85;1.92;;;;;;;;;;1741012;28;20215;-77
2023/12/05 08:24:23;;;;;;;3.80;2.15;;;;;;;;;;1741026;28;20195;-77
2023/12/05 08:25:15;;;;;;;3.05;1.83;;;;;;;;;;1741368;28;20740;-77
2023/12/05 08:26:06;;;;;;;3.55;2.05;;;;;;;;;;1740917;28;20690;-76
2023/12/05 08:26:58;;;;;;;4.18;2.13;;;;;;;;;;1741357;28;20246;-77
2023/12/05 08:27:50;;;;;;;4.07;2.00;;;;;;;;;;1741580;28;20254;-77
2023/12/05 08:28:41;;;;;;;2.30;2.10;;;;;;;;;;1740989;28;20226;-77
2023/12/05 08:29:32;;;;;;;4.75;2.20;;;;;;;;;;1741175;28;20207;-77
2023/12/05 08:30:24;;;;;;;2.47;1.90;;;;;;;;;;1742559;28;20199;-77
2023/12/05 08:31:15;;;;;;;5.82;1.88;;;;;;;;;;1741541;28;20211;-78
2023/12/05 08:32:07;;;;;;;4.00;1.75;;;;;;;;;;1741564;28;20219;-77
2023/12/05 08:33:00;;;;;;;3.05;2.05;;;;;;;;;;1741340;28;20245;-77
2023/12/05 08:33:51;;;;;;;4.13;2.25;;;;;;;;;;1741665;28;20272;-77
2023/12/05 08:34:43;;;;;;;3.42;2.03;;;;;;;;;;1741673;28;20213;-77
2023/12/05 08:35:36;;;;;;;2.35;1.83;;;;;;;;;;1741697;28;20200;-77
2023/12/05 08:36:27;;;;;;;3.25;2.08;;;;;;;;;;1741398;28;20218;-77
2023/12/05 08:37:19;;;;;;;2.42;1.92;;;;;;;;;;1741776;28;20564;-77
2023/12/05 08:38:10;;;;;;;6.70;2.22;;;;;;;;;;1741613;28;20227;-77
2023/12/05 08:39:01;;;;;;;2.45;1.85;;;;;;;;;;1741713;28;20223;-77
2023/12/05 08:39:53;;;;;;;3.20;2.10;;;;;;;;;;1741637;28;20199;-77
2023/12/05 08:40:44;;;;;;;3.42;1.95;;;;;;;;;;1741624;28;20207;-77
2023/12/05 08:41:36;;;;;;;5.50;2.17;;;;;;;;;;1741812;28;20549;-77
2023/12/05 08:42:28;;;;;;;2.83;2.45;;;;;;;;;;1741586;28;20689;-77
2023/12/05 08:43:19;;;;;;;3.78;2.08;;;;;;;;;;1741604;28;20567;-77
2023/12/05 08:44:11;;;;;;;3.25;1.90;;;;;;;;;;1741447;28;20206;-77
2023/12/05 08:45:02;;;;;;;2.85;1.90;;;;;;;;;;1747228;28;20209;-77
2023/12/05 08:45:53;;;;;;;2.60;2.13;;;;;;;;;;1747292;28;20281;-77
2023/12/05 08:46:45;;;;;;;3.53;2.08;;;;;;;;;;1741282;28;20256;-77
2023/12/05 08:47:36;;;;;;;3.35;1.92;;;;;;;;;;1741478;28;20210;-77
2023/12/05 08:48:27;;;;;;;2.55;1.83;;;;;;;;;;1741592;28;20214;-78
2023/12/05 08:49:19;;;;;;;2.45;1.70;;;;;;;;;;1741589;28;20195;-77
2023/12/05 08:50:10;;;;;;;3.38;1.90;;;;;;;;;;1741523;28;20211;-77
2023/12/05 08:51:04;;;;;;;2.65;2.00;;;;;;;;;;1741603;28;20544;-77
2023/12/05 08:51:55;;;;;;;2.08;1.85;;;;;;;;;;1741459;28;20210;-77
2023/12/05 08:52:47;;;;;;;5.22;1.90;;;;;;;;;;1741523;28;20574;-77
2023/12/05 08:53:38;;;;;;;2.47;2.00;;;;;;;;;;1741355;28;20203;-77
2023/12/05 08:54:30;;;;;;;3.00;2.40;;;;;;;;;;1741427;28;20227;-76
2023/12/05 08:55:21;;;;;;;3.35;2.10;;;;;;;;;;1741501;28;20203;-77
2023/12/05 08:56:12;;;;;;;4.75;2.30;;;;;;;;;;1741206;28;20199;-76
2023/12/05 08:57:04;;;;;;;3.70;1.95;;;;;;;;;;1741623;28;20546;-77
2023/12/05 08:57:55;;;;;;;2.40;1.70;;;;;;;;;;1741345;28;20745;-77
2023/12/05 08:58:47;;;;;;;3.30;1.60;;;;;;;;;;1741586;28;20675;-77
2023/12/05 08:59:39;;;;;;;2.10;1.90;;;;;;;;;;1741513;28;20642;-77
2023/12/05 09:00:30;;;;;;;5.20;1.90;;;;;;;;;;1743640;28;20203;-77
2023/12/05 09:01:23;;;;;;;3.75;1.80;;;;;;;;;;1745326;28;20620;-77
2023/12/05 09:02:15;;;;;;;4.10;1.70;;;;;;;;;;1741597;28;20199;-77
2023/12/05 09:03:06;;;;;;;3.17;2.20;;;;;;;;;;1741594;28;20207;-77
2023/12/05 09:03:57;;;;;;;2.70;1.80;;;;;;;;;;1741346;28;20203;-76
2023/12/05 09:04:49;;;;;;;2.47;1.70;;;;;;;;;;1741551;28;20657;-77
2023/12/05 09:05:40;;;;;;;5.47;1.92;;;;;;;;;;1734680;28;20200;-77
2023/12/05 09:06:33;;;;;;;2.28;1.90;;;;;;;;;;1734100;28;20617;-77
2023/12/05 09:07:25;;;;;;;3.67;2.33;;;;;;;;;;1740303;28;20569;-77
2023/12/05 09:08:16;;;;;;;2.05;1.40;;;;;;;;;;1741383;28;20230;-76
2023/12/05 09:09:07;;;;;;;2.25;1.50;;;;;;;;;;1741560;28;20203;-77
2023/12/05 09:09:59;;;;;;;3.40;1.67;;;;;;;;;;1741456;28;20199;-77
2023/12/05 09:10:50;;;;;;;3.58;1.90;;;;;;;;;;1741562;28;20206;-77
2023/12/05 09:11:42;;;;;;;2.95;2.08;;;;;;;;;;1741453;28;20587;-77
2023/12/05 09:12:34;;;;;;;9.63;6.72;;;;;;;;;;1741213;28;20244;-77
2023/12/05 09:13:25;;;;;;;7.30;4.78;;;;;;;;;;1741403;28;20555;-77
2023/12/05 09:14:18;;;;;;;3.50;2.55;;;;;;;;;;1741305;28;20241;-77
2023/12/05 09:15:09;;;;;;;5.72;1.98;;;;;;;;;;1741445;28;20211;-77
2023/12/05 09:16:01;;;;;;;3.08;2.00;;;;;;;;;;1741367;28;20195;-77
2023/12/05 09:16:52;;;;;;;2.55;1.50;;;;;;;;;;1742002;28;20680;-77
2023/12/05 09:17:45;;;;;;;2.53;2.28;;;;;;;;;;1741260;28;20210;-77
2023/12/05 09:18:36;;;;;;;3.03;2.17;;;;;;;;;;1741270;28;20210;-77
2023/12/05 09:19:27;;;;;;;2.55;1.80;;;;;;;;;;1741432;28;20659;-77
2023/12/05 09:20:19;;;;;;;2.08;1.67;;;;;;;;;;1741495;28;20203;-77
2023/12/05 09:21:10;;;;;;;2.95;1.83;;;;;;;;;;1741533;28;20215;-77
2023/12/05 09:22:04;;;;;;;2.20;1.58;;;;;;;;;;1741420;28;20195;-77
2023/12/05 09:22:55;;;;;;;3.40;1.50;;;;;;;;;;1741351;28;20211;-77
2023/12/05 09:23:47;;;;;;;2.78;1.75;;;;;;;;;;1741405;28;20635;-77
2023/12/05 09:24:39;;;;;;;2.13;1.25;;;;;;;;;;1741408;28;20660;-77
2023/12/05 09:25:30;;;;;;;2.20;1.70;;;;;;;;;;1741377;28;20698;-77
2023/12/05 09:26:21;;;;;;;1.63;1.38;;;;;;;;;;1740931;28;20249;-77
2023/12/05 09:27:13;;;;;;;4.30;1.95;;;;;;;;;;1741351;28;20696;-77
2023/12/05 09:28:04;;;;;;;2.78;1.77;;;;;;;;;;1741320;28;20596;-77
2023/12/05 09:28:55;;;;;;;2.55;1.40;;;;;;;;;;1741391;28;20265;-77
2023/12/05 09:29:47;;;;;;;2.70;1.85;;;;;;;;;;1741254;28;20205;-77
2023/12/05 09:30:39;;;;;;;3.20;1.95;;;;;;;;;;1741333;28;20206;-77
2023/12/05 09:31:31;;;;;;;3.85;1.77;;;;;;;;;;1741378;28;20285;-77
2023/12/05 09:32:22;;;;;;;2.85;1.80;;;;;;;;;;1741321;28;20210;-77
2023/12/05 09:33:13;;;;;;;3.35;1.50;;;;;;;;;;1742204;28;20195;-77
2023/12/05 09:34:05;;;;;;;3.25;1.67;;;;;;;;;;1741466;28;20225;-77
2023/12/05 09:34:56;;;;;;;2.85;1.90;;;;;;;;;;1741265;28;20219;-77
2023/12/05 09:35:47;;;;;;;2.20;1.77;;;;;;;;;;1741285;28;20203;-77
2023/12/05 09:36:39;;;;;;;2.60;1.70;;;;;;;;;;1741023;28;20671;-77
2023/12/05 09:37:32;;;;;;;2.50;1.55;;;;;;;;;;1741173;28;20675;-77
2023/12/05 09:38:23;;;;;;;2.85;1.58;;;;;;;;;;1741442;28;20203;-77
2023/12/05 09:39:15;;;;;;;3.10;1.45;;;;;;;;;;1741394;28;20578;-77
2023/12/05 09:40:07;;;;;;;4.18;1.50;;;;;;;;;;1741231;28;20207;-77
2023/12/05 09:41:00;;;;;;;3.15;1.67;;;;;;;;;;1741255;28;20195;-77
2023/12/05 09:41:51;;;;;;;2.67;1.33;;;;;;;;;;1734441;28;20223;-77
2023/12/05 09:42:43;;;;;;;2.05;1.38;;;;;;;;;;1734530;28;20291;-77
2023/12/05 09:43:37;;;;;;;2.15;1.58;;;;;;;;;;1739805;28;20234;-77
2023/12/05 09:44:29;;;;;;;2.03;1.50;;;;;;;;;;1741295;28;20328;-77
2023/12/05 09:45:22;;;;;;;1.60;1.50;;;;;;;;;;1741094;28;20199;-77
2023/12/05 09:46:13;;;;;;;1.50;1.40;;;;;;;;;;1740941;28;20252;-77
2023/12/05 09:47:05;;;;;;;1.83;1.50;;;;;;;;;;1741201;28;20203;-77
2023/12/05 09:48:01;;;;;;;3.03;1.33;;;;;;;;;;1741203;28;20599;-77
2023/12/05 09:48:57;;;;;;;1.30;1.20;;;;;;;;;;1741230;28;20195;-77
2023/12/05 09:49:49;;;;;;;3.28;1.40;;;;;;;;;;1748305;28;20198;-77
2023/12/05 09:50:41;;;;;;;2.05;1.60;;;;;;;;;;1746884;28;20670;-77
2023/12/05 09:51:33;;;;;;;3.33;1.88;;;;;;;;;;1741178;28;20565;-77
2023/12/05 09:52:27;;;;;;;2.67;1.30;;;;;;;;;;1741309;28;20231;-77
2023/12/05 09:53:19;;;;;;;3.35;1.40;;;;;;;;;;1734305;28;20200;-77
2023/12/05 09:54:12;;;;;;;2.42;1.80;;;;;;;;;;1734316;28;20204;-77
2023/12/05 09:55:04;;;;;;;2.75;1.20;;;;;;;;;;1740037;28;20291;-77
2023/12/05 09:55:55;;;;;;;2.00;1.40;;;;;;;;;;1741257;28;20282;-77
2023/12/05 09:56:49;;;;;;;3.97;1.63;;;;;;;;;;1740751;28;20202;-77
2023/12/05 09:57:40;;;;;;;2.08;1.23;;;;;;;;;;1741179;28;20199;-77
2023/12/05 09:58:32;;;;;;;2.78;1.80;;;;;;;;;;1741244;28;20207;-77
2023/12/05 09:59:23;;;;;;;1.70;1.10;;;;;;;;;;1741181;28;20207;-77
2023/12/05 10:00:15;;;;;;;2.35;1.63;;;;;;;;;;1741164;28;20305;-77
2023/12/05 10:01:07;;;;;;;4.50;1.35;;;;;;;;;;1741266;28;20202;-77
2023/12/05 10:02:01;;;;;;;2.47;1.60;;;;;;;;;;1741143;28;20214;-77
2023/12/05 10:02:54;;;;;;;2.08;1.60;;;;;;;;;;1741182;28;20198;-77
2023/12/05 10:03:45;;;;;;;1.23;1.13;;;;;;;;;;1742606;28;20207;-77
2023/12/05 10:04:40;;;;;;;2.97;1.40;;;;;;;;;;1742769;28;20732;-77
2023/12/05 10:05:35;;;;;;;2.40;1.38;;;;;;;;;;1745378;28;20191;-77
2023/12/05 10:06:26;;;;;;;1.80;1.70;;;;;;;;;;1743363;28;20898;-77
2023/12/05 10:07:19;;;;;;;3.00;1.60;;;;;;;;;;1742477;28;20613;-77
2023/12/05 10:08:10;;;;;;;2.13;1.60;;;;;;;;;;1742538;28;20616;-77
2023/12/05 10:09:06;;;;;;;2.17;1.23;;;;;;;;;;1742632;28;20207;-77
2023/12/05 10:09:59;;;;;;;2.65;1.60;;;;;;;;;;1742467;28;20198;-77
2023/12/05 10:10:54;;;;;;;2.83;1.80;;;;;;;;;;1742553;28;20199;-77
2023/12/05 10:11:46;;;;;;;3.00;1.50;;;;;;;;;;1742583;28;20199;-77
2023/12/05 10:12:38;;;;;;;2.60;1.73;;;;;;;;;;1742514;28;20206;-77
2023/12/05 10:13:30;;;;;;;2.00;1.60;;;;;;;;;;1742445;28;20206;-77
2023/12/05 10:14:21;;;;;;;1.63;1.25;;;;;;;;;;1742639;28;20659;-77
2023/12/05 10:15:13;;;;;;;6.53;1.65;;;;;;;;;;1742791;28;20205;-77
2023/12/05 10:16:06;;;;;;;2.42;1.63;;;;;;;;;;1742327;28;20667;-77
2023/12/05 10:16:59;;;;;;;2.42;1.90;;;;;;;;;;1742432;28;20268;-77
2023/12/05 10:17:50;;;;;;;2.78;1.70;;;;;;;;;;1742523;28;20625;-77
2023/12/05 10:18:41;;;;;;;2.20;1.65;;;;;;;;;;1742543;28;20199;-77
2023/12/05 10:19:34;;;;;;;2.60;1.50;;;;;;;;;;1742518;28;20245;-77
2023/12/05 10:20:25;;;;;;;2.88;1.40;;;;;;;;;;1742503;28;20227;-77
2023/12/05 10:21:17;;;;;;;2.45;1.50;;;;;;;;;;1742768;28;20203;-77
2023/12/05 10:22:08;;;;;;;4.68;1.80;;;;;;;;;;1743037;28;20195;-77
2023/12/05 10:23:00;;;;;;;3.08;1.70;;;;;;;;;;1742694;28;20214;-77
2023/12/05 10:23:51;;;;;;;1.77;1.42;;;;;;;;;;1742585;28;20199;-77
2023/12/05 10:24:45;;;;;;;2.45;1.42;;;;;;;;;;1742633;28;20285;-77
2023/12/05 10:25:37;;;;;;;3.10;1.40;;;;;;;;;;1742245;28;20206;-76
2023/12/05 10:26:28;;;;;;;2.55;1.75;;;;;;;;;;1742033;28;20298;-76
2023/12/05 10:27:20;;;;;;;1.90;1.58;;;;;;;;;;1742354;28;20234;-77
2023/12/05 10:28:12;;;;;;;1.65;1.40;;;;;;;;;;1742432;28;20231;-77
2023/12/05 10:29:03;;;;;;;2.50;1.42;;;;;;;;;;1742443;28;20572;-77
2023/12/05 10:29:55;;;;;;;2.90;1.58;;;;;;;;;;1742519;28;20678;-77
2023/12/05 10:30:46;;;;;;;1.98;1.45;;;;;;;;;;1742410;28;20580;-77
2023/12/05 10:31:38;;;;;;;1.80;1.40;;;;;;;;;;1742404;28;20256;-77
2023/12/05 10:32:29;;;;;;;1.73;1.27;;;;;;;;;;1742363;28;20222;-77
2023/12/05 10:33:21;;;;;;;3.25;1.35;;;;;;;;;;1742409;28;20199;-77
2023/12/05 10:34:13;;;;;;;1.75;1.33;;;;;;;;;;1742406;28;20198;-77
2023/12/05 10:35:05;;;;;;;3.53;1.77;;;;;;;;;;1742352;28;20270;-77
2023/12/05 10:35:56;;;;;;;2.67;1.30;;;;;;;;;;1742360;28;20290;-77
2023/12/05 10:37:01;;;;;;;2.70;1.33;;;;;;;;;;1742140;28;20195;-77
2023/12/05 10:37:53;;;;;;;2.75;1.30;;;;;;;;;;1743463;28;20223;-77
2023/12/05 10:38:45;;;;;;;2.95;1.60;;;;;;;;;;1742348;28;20203;-77
2023/12/05 10:39:37;;;;;;;1.83;1.40;;;;;;;;;;1742332;28;20203;-77
2023/12/05 10:40:30;;;;;;;1.50;1.35;;;;;;;;;;1742727;28;20243;-77
2023/12/05 10:41:23;;;;;;;2.70;1.50;;;;;;;;;;1742611;28;20210;-77
2023/12/05 10:42:14;;;;;;;2.97;1.40;;;;;;;;;;1742442;28;20203;-77
2023/12/05 10:43:05;;;;;;;1.98;1.42;;;;;;;;;;1742484;28;20264;-77
2023/12/05 10:43:57;;;;;;;3.78;1.50;;;;;;;;;;1742614;28;20199;-76
2023/12/05 10:44:48;;;;;;;3.15;1.60;;;;;;;;;;1742557;28;20676;-77
2023/12/05 10:45:39;;;;;;;4.40;2.30;;;;;;;;;;1742469;28;20206;-77
2023/12/05 10:46:36;;;;;;;2.95;1.80;;;;;;;;;;1741853;28;20297;-77
2023/12/05 10:47:28;;;;;;;2.17;1.40;;;;;;;;;;1742405;28;20207;-77
2023/12/05 10:48:20;;;;;;;2.53;1.70;;;;;;;;;;1742210;28;20746;-77
2023/12/05 10:49:12;;;;;;;2.15;1.95;;;;;;;;;;1742276;28;20210;-77
2023/12/05 10:50:04;;;;;;;2.08;1.52;;;;;;;;;;1742272;28;20204;-77
2023/12/05 10:50:57;;;;;;;2.53;1.98;;;;;;;;;;1742346;28;20199;-77
2023/12/05 10:51:48;;;;;;;2.20;1.50;;;;;;;;;;1742300;28;20315;-77
2023/12/05 10:52:40;;;;;;;3.63;1.48;;;;;;;;;;1742360;28;20256;-77
2023/12/05 10:53:34;;;;;;;2.20;1.35;;;;;;;;;;1742708;28;20218;-77
2023/12/05 10:54:26;;;;;;;2.42;1.48;;;;;;;;;;1749323;28;20209;-77
2023/12/05 10:55:25;;;;;;;1.95;1.45;;;;;;;;;;1749237;28;20218;-77
2023/12/05 10:56:18;;;;;;;3.25;1.83;;;;;;;;;;1735183;28;20203;-77
2023/12/05 10:57:10;;;;;;;2.28;1.55;;;;;;;;;;1735704;28;20778;-77
2023/12/05 10:58:02;;;;;;;3.97;1.40;;;;;;;;;;1742130;28;20230;-77
2023/12/05 10:58:53;;;;;;;3.10;1.58;;;;;;;;;;1742334;28;20293;-77
2023/12/05 10:59:46;;;;;;;1.63;1.38;;;;;;;;;;1742394;28;20696;-77
2023/12/05 11:00:37;;;;;;;2.60;1.23;;;;;;;;;;1742318;28;20616;-77
2023/12/05 11:01:28;;;;;;;2.38;1.60;;;;;;;;;;1742218;28;20225;-77
2023/12/05 11:02:21;;;;;;;1.60;1.48;;;;;;;;;;1742477;28;20565;-77
2023/12/05 11:03:13;;;;;;;1.73;1.30;;;;;;;;;;1742292;28;20210;-77
2023/12/05 11:04:07;;;;;;;1.77;1.30;;;;;;;;;;1742379;28;20285;-77
2023/12/05 11:05:02;;;;;;;2.50;1.40;;;;;;;;;;1742338;28;20626;-77
2023/12/05 11:05:55;;;;;;;5.50;1.40;;;;;;;;;;1742401;28;20199;-77
2023/12/05 11:06:46;;;;;;;1.52;1.25;;;;;;;;;;1742005;28;20207;-77
2023/12/05 11:07:37;;;;;;;2.80;1.40;;;;;;;;;;1742317;28;20203;-77
2023/12/05 11:08:29;;;;;;;1.77;1.40;;;;;;;;;;1742425;28;20199;-77
2023/12/05 11:09:20;;;;;;;3.25;1.17;;;;;;;;;;1742357;28;20214;-77
2023/12/05 11:10:11;;;;;;;2.30;1.20;;;;;;;;;;1743411;28;20195;-77
2023/12/05 11:11:04;;;;;;;2.58;1.30;;;;;;;;;;1742217;28;20844;-77